createdAt,value
2023-01-07T00:01:46.891Z,4.40
2023-01-07T00:04:34.161Z,4.40
2023-01-07T00:07:21.344Z,4.40
2023-01-07T00:10:09.555Z,4.40
2023-01-07T00:12:58.503Z,4.30
2023-01-07T00:15:46.167Z,4.20
2023-01-07T00:18:33.515Z,4.20
2023-01-07T00:21:22.404Z,4.10
2023-01-07T00:24:11.977Z,4.20
2023-01-07T00:26:59.195Z,4.20
2023-01-07T00:29:47.865Z,4.20
2023-01-07T00:32:54.518Z,4.30
2023-01-07T00:35:41.554Z,4.40
2023-01-07T00:38:29.338Z,4.50
2023-01-07T00:41:16.710Z,4.40
2023-01-07T00:44:04.978Z,4.30
2023-01-07T00:46:53.707Z,4.10
2023-01-07T00:49:40.939Z,4.00
2023-01-07T00:52:28.330Z,3.90
2023-01-07T00:55:15.964Z,3.80
2023-01-07T00:58:03.325Z,3.70
2023-01-07T01:00:51.340Z,3.70
2023-01-07T01:03:40.789Z,3.60
2023-01-07T01:06:28.112Z,3.60
2023-01-07T01:09:15.325Z,3.50
2023-01-07T01:12:02.701Z,3.40
2023-01-07T01:14:49.964Z,3.40
2023-01-07T01:17:37.558Z,3.40
2023-01-07T01:20:26.527Z,3.40
2023-01-07T01:23:14.104Z,3.40
2023-01-07T01:26:06.283Z,3.40
2023-01-07T01:28:53.594Z,3.50
2023-01-07T01:31:44.010Z,3.50
2023-01-07T01:34:31.545Z,3.50
2023-01-07T01:37:20.261Z,3.60
2023-01-07T01:40:08.801Z,3.60
2023-01-07T01:42:56.045Z,3.60
2023-01-07T01:45:43.523Z,3.50
2023-01-07T01:48:31.696Z,3.50
2023-01-07T01:51:24.041Z,3.40
2023-01-07T01:54:16.231Z,3.40
2023-01-07T01:57:09.799Z,3.30
2023-01-07T01:59:59.189Z,3.30
2023-01-07T02:02:50.457Z,3.20
2023-01-07T02:05:42.280Z,3.10
2023-01-07T02:08:29.876Z,3.10
2023-01-07T02:11:33.228Z,3.00
2023-01-07T02:14:45.598Z,3.00
2023-01-07T02:17:45.914Z,3.00
2023-01-07T02:20:58.143Z,3.00
2023-01-07T02:24:31.159Z,3.00
2023-01-07T02:27:44.387Z,3.00
2023-01-07T02:30:51.847Z,2.90
2023-01-07T02:33:52.043Z,2.90
2023-01-07T02:36:50.556Z,2.80
2023-01-07T02:39:49.212Z,2.70
2023-01-07T02:42:45.994Z,2.60
2023-01-07T02:45:37.574Z,2.60
2023-01-07T02:48:26.785Z,2.50
2023-01-07T02:51:15.697Z,2.40
2023-01-07T02:54:04.000Z,2.40
2023-01-07T02:57:20.015Z,2.30
2023-01-07T03:00:18.967Z,2.30
2023-01-07T03:03:25.789Z,2.20
2023-01-07T03:06:32.220Z,2.20
2023-01-07T03:09:30.460Z,2.20
2023-01-07T03:12:27.360Z,2.20
2023-01-07T03:15:21.091Z,2.20
2023-01-07T03:18:12.848Z,2.10
2023-01-07T03:21:04.311Z,2.00
2023-01-07T03:23:56.996Z,1.90
2023-01-07T03:26:48.118Z,1.90
2023-01-07T03:29:36.724Z,1.80
2023-01-07T03:32:29.317Z,1.70
2023-01-07T03:35:17.424Z,1.70
2023-01-07T03:38:05.619Z,1.70
2023-01-07T03:40:54.395Z,1.70
2023-01-07T03:43:41.189Z,1.60
2023-01-07T03:46:29.180Z,1.60
2023-01-07T03:49:17.138Z,1.60
2023-01-07T03:52:04.469Z,1.50
2023-01-07T03:54:52.302Z,1.50
2023-01-07T03:57:41.992Z,1.50
2023-01-07T04:00:29.699Z,1.40
2023-01-07T04:03:25.941Z,1.40
2023-01-07T04:06:13.657Z,1.40
2023-01-07T04:09:01.231Z,1.30
2023-01-07T04:11:48.656Z,1.30
2023-01-07T04:14:37.159Z,1.30
2023-01-07T04:17:24.390Z,1.30
2023-01-07T04:20:13.163Z,1.30
2023-01-07T04:23:01.014Z,1.30
2023-01-07T04:25:50.339Z,1.30
2023-01-07T04:28:42.432Z,1.20
2023-01-07T04:31:31.390Z,1.20
2023-01-07T04:34:18.908Z,1.10
2023-01-07T04:37:05.992Z,1.00
2023-01-07T04:39:53.212Z,1.00
2023-01-07T04:42:40.971Z,0.90
2023-01-07T04:45:29.912Z,0.90
2023-01-07T04:48:20.750Z,0.80
2023-01-07T04:51:10.981Z,0.80
2023-01-07T04:53:59.845Z,0.80
2023-01-07T04:56:47.754Z,0.70
2023-01-07T04:59:35.293Z,0.70
2023-01-07T05:02:23.754Z,0.70
2023-01-07T05:05:12.542Z,0.70
2023-01-07T05:08:00.883Z,0.60
2023-01-07T05:10:50.851Z,0.70
2023-01-07T05:13:38.449Z,0.70
2023-01-07T05:16:26.162Z,0.70
2023-01-07T05:19:15.442Z,0.70
2023-01-07T05:22:08.104Z,0.80
2023-01-07T05:24:59.320Z,0.80
2023-01-07T05:27:48.172Z,0.90
2023-01-07T05:30:36.223Z,0.90
2023-01-07T05:33:24.586Z,0.90
2023-01-07T05:36:12.879Z,0.90
2023-01-07T05:39:01.497Z,1.00
2023-01-07T05:41:48.878Z,1.00
2023-01-07T05:44:37.227Z,1.10
2023-01-07T05:47:24.261Z,1.10
2023-01-07T05:50:11.944Z,1.20
2023-01-07T05:52:59.525Z,1.20
2023-01-07T05:55:48.026Z,1.30
2023-01-07T05:58:35.653Z,1.30
2023-01-07T06:01:23.090Z,1.40
2023-01-07T06:04:10.858Z,1.40
2023-01-07T06:06:58.707Z,1.40
2023-01-07T06:09:46.423Z,1.50
2023-01-07T06:12:35.488Z,1.50
2023-01-07T06:15:22.713Z,1.60
2023-01-07T06:18:09.797Z,1.70
2023-01-07T06:20:57.233Z,1.70
2023-01-07T06:23:44.589Z,1.70
2023-01-07T06:26:32.019Z,1.80
2023-01-07T06:29:20.633Z,1.90
2023-01-07T06:32:08.323Z,1.90
2023-01-07T06:34:55.875Z,2.00
2023-01-07T06:37:43.076Z,2.00
2023-01-07T06:40:30.703Z,2.00
2023-01-07T06:43:17.851Z,2.10
2023-01-07T06:46:07.171Z,2.10
2023-01-07T06:48:54.519Z,2.20
2023-01-07T06:51:41.869Z,2.30
2023-01-07T06:54:29.060Z,2.30
2023-01-07T06:57:16.469Z,2.40
2023-01-07T07:00:07.166Z,2.50
2023-01-07T07:02:55.983Z,2.50
2023-01-07T07:05:43.681Z,2.60
2023-01-07T07:08:31.228Z,2.60
2023-01-07T07:11:18.588Z,2.70
2023-01-07T07:14:05.941Z,2.70
2023-01-07T07:16:53.386Z,2.80
2023-01-07T07:19:41.901Z,2.90
2023-01-07T07:22:29.408Z,2.90
2023-01-07T07:25:17.124Z,3.00
2023-01-07T07:28:04.851Z,3.00
2023-01-07T07:30:52.608Z,3.10
2023-01-07T07:33:39.670Z,3.10
2023-01-07T07:36:28.506Z,3.20
2023-01-07T07:39:18.845Z,3.20
2023-01-07T07:42:06.481Z,3.30
2023-01-07T07:44:53.774Z,3.40
2023-01-07T07:47:40.883Z,3.40
2023-01-07T07:50:27.973Z,3.50
2023-01-07T07:53:16.896Z,3.60
2023-01-07T07:56:04.028Z,3.60
2023-01-07T07:58:51.443Z,3.70
2023-01-07T08:01:38.945Z,3.80
2023-01-07T08:04:28.806Z,3.90
2023-01-07T08:07:32.565Z,4.00
2023-01-07T08:10:22.144Z,4.00
2023-01-07T08:13:10.251Z,4.10
2023-01-07T08:15:57.743Z,4.20
2023-01-07T08:18:45.132Z,4.30
2023-01-07T08:21:32.464Z,4.40
2023-01-07T08:24:19.885Z,4.50
2023-01-07T08:27:08.484Z,4.60
2023-01-07T08:29:56.379Z,4.70
2023-01-07T08:32:43.473Z,4.80
2023-01-07T08:35:31.095Z,5.00
2023-01-07T08:38:18.587Z,5.10
2023-01-07T08:41:06.099Z,5.20
2023-01-07T08:43:55.418Z,5.30
2023-01-07T08:46:42.982Z,5.40
2023-01-07T08:49:30.563Z,5.60
2023-01-07T08:52:18.171Z,5.70
2023-01-07T08:55:06.328Z,5.80
2023-01-07T08:57:54.284Z,5.90
2023-01-07T09:00:43.875Z,5.90
2023-01-07T09:03:31.081Z,6.00
2023-01-07T09:06:18.465Z,6.00
2023-01-07T09:09:06.163Z,6.20
2023-01-07T09:11:53.453Z,6.30
2023-01-07T09:14:40.789Z,6.40
2023-01-07T09:17:29.427Z,6.60
2023-01-07T09:20:16.991Z,6.60
2023-01-07T09:23:04.639Z,6.60
2023-01-07T09:25:52.173Z,6.70
2023-01-07T09:28:39.693Z,6.70
2023-01-07T09:31:27.069Z,6.70
2023-01-07T09:34:16.704Z,6.80
2023-01-07T09:37:04.023Z,6.70
2023-01-07T09:39:51.626Z,6.70
2023-01-07T09:42:52.128Z,6.70
2023-01-07T09:45:44.469Z,6.70
2023-01-07T09:48:35.103Z,6.70
2023-01-07T09:51:28.434Z,6.80
2023-01-07T09:54:23.523Z,6.80
2023-01-07T09:57:17.229Z,6.90
2023-01-07T10:00:11.657Z,7.00
2023-01-07T10:03:19.075Z,7.10
2023-01-07T10:06:12.527Z,7.20
2023-01-07T10:09:10.216Z,7.20
2023-01-07T10:12:05.426Z,7.40
2023-01-07T10:15:16.695Z,7.40
2023-01-07T10:18:20.703Z,7.40
2023-01-07T10:21:17.681Z,7.30
2023-01-07T10:24:10.307Z,7.30
2023-01-07T10:27:01.917Z,7.40
2023-01-07T10:29:53.944Z,7.50
2023-01-07T10:32:42.653Z,7.50
2023-01-07T10:35:34.351Z,7.60
2023-01-07T10:38:22.144Z,7.70
2023-01-07T10:41:16.727Z,7.80
2023-01-07T10:44:31.091Z,7.90
2023-01-07T10:47:29.836Z,8.00
2023-01-07T10:50:43.225Z,8.10
2023-01-07T10:53:45.230Z,8.20
2023-01-07T10:56:37.910Z,8.20
2023-01-07T10:59:26.740Z,8.30
2023-01-07T11:02:19.043Z,8.40
2023-01-07T11:05:07.486Z,8.50
2023-01-07T11:08:01.583Z,8.60
2023-01-07T11:10:49.386Z,8.60
2023-01-07T11:13:42.285Z,8.70
2023-01-07T11:16:33.010Z,8.70
2023-01-07T11:19:23.367Z,8.90
2023-01-07T11:22:31.423Z,8.90
2023-01-07T11:25:30.187Z,9.00
2023-01-07T11:28:20.442Z,9.10
2023-01-07T11:31:09.259Z,9.20
2023-01-07T11:34:03.141Z,9.40
2023-01-07T11:36:52.353Z,9.70
2023-01-07T11:39:39.889Z,10.00
2023-01-07T11:42:42.151Z,10.10
2023-01-07T11:45:33.003Z,10.20
2023-01-07T11:48:27.288Z,10.30
2023-01-07T11:51:14.935Z,10.40
2023-01-07T11:54:02.434Z,10.40
2023-01-07T11:56:49.829Z,10.60
2023-01-07T11:59:37.461Z,10.70
2023-01-07T12:02:27.149Z,10.80
2023-01-07T12:05:22.633Z,10.90
2023-01-07T12:08:20.528Z,11.10
2023-01-07T12:11:10.120Z,11.20
2023-01-07T12:13:57.767Z,11.30
2023-01-07T12:16:45.997Z,11.30
2023-01-07T12:19:53.993Z,11.40
2023-01-07T12:22:52.409Z,11.50
2023-01-07T12:25:57.879Z,11.50
2023-01-07T12:29:01.937Z,11.60
2023-01-07T12:32:04.859Z,11.80
2023-01-07T12:34:57.090Z,11.90
2023-01-07T12:37:49.982Z,11.80
2023-01-07T12:40:41.736Z,11.70
2023-01-07T12:43:34.606Z,11.60
2023-01-07T12:46:23.784Z,11.50
2023-01-07T12:49:17.952Z,11.50
2023-01-07T12:52:09.343Z,11.40
2023-01-07T12:55:03.735Z,11.40
2023-01-07T12:58:04.347Z,11.50
2023-01-07T13:00:57.176Z,11.50
2023-01-07T13:03:52.957Z,11.60
2023-01-07T13:06:45.761Z,11.80
2023-01-07T13:09:41.088Z,12.00
2023-01-07T13:12:46.219Z,12.10
2023-01-07T13:15:38.199Z,12.20
2023-01-07T13:18:25.617Z,12.20
2023-01-07T13:21:14.953Z,12.20
2023-01-07T13:24:21.028Z,12.30
2023-01-07T13:27:51.937Z,12.40
2023-01-07T13:30:47.192Z,12.40
2023-01-07T13:33:44.992Z,12.30
2023-01-07T13:36:39.871Z,12.20
2023-01-07T13:39:42.203Z,12.00
2023-01-07T13:42:42.214Z,11.70
2023-01-07T13:45:33.380Z,11.40
2023-01-07T13:48:28.016Z,11.30
2023-01-07T13:51:16.311Z,11.40
2023-01-07T13:54:03.983Z,11.60
2023-01-07T13:56:52.717Z,11.90
2023-01-07T13:59:52.531Z,12.10
2023-01-07T14:02:57.001Z,12.20
2023-01-07T14:05:44.230Z,12.20
2023-01-07T14:08:32.402Z,12.10
2023-01-07T14:11:21.577Z,11.90
2023-01-07T14:14:15.899Z,11.60
2023-01-07T14:17:16.137Z,11.30
2023-01-07T14:20:12.628Z,11.00
2023-01-07T14:23:09.038Z,10.70
2023-01-07T14:26:13.239Z,10.40
2023-01-07T14:29:21.055Z,10.10
2023-01-07T14:32:37.721Z,9.80
2023-01-07T14:35:31.540Z,9.60
2023-01-07T14:38:47.993Z,9.40
2023-01-07T14:41:35.194Z,9.20
2023-01-07T14:44:30.349Z,9.00
2023-01-07T14:47:54.891Z,8.80
2023-01-07T14:50:48.178Z,8.70
2023-01-07T14:54:07.104Z,8.50
2023-01-07T14:57:04.082Z,8.30
2023-01-07T15:00:21.275Z,8.10
2023-01-07T15:03:40.749Z,8.00
2023-01-07T15:06:29.999Z,7.80
2023-01-07T15:09:38.721Z,7.60
2023-01-07T15:12:48.420Z,7.30
2023-01-07T15:15:56.199Z,7.20
2023-01-07T15:18:48.815Z,7.00
2023-01-07T15:21:45.936Z,6.80
2023-01-07T15:24:40.932Z,6.70
2023-01-07T15:27:39.205Z,6.60
2023-01-07T15:30:41.140Z,6.40
2023-01-07T15:34:07.328Z,6.30
2023-01-07T15:36:54.973Z,6.10
2023-01-07T15:39:48.558Z,6.10
2023-01-07T15:42:36.232Z,6.00
2023-01-07T15:45:27.022Z,6.00
2023-01-07T15:48:14.527Z,6.00
2023-01-07T15:51:03.281Z,5.90
2023-01-07T15:53:56.183Z,5.90
2023-01-07T15:56:43.494Z,5.80
2023-01-07T15:59:34.029Z,5.80
2023-01-07T16:02:25.949Z,5.80
2023-01-07T16:05:13.327Z,5.70
2023-01-07T16:08:02.955Z,5.70
2023-01-07T16:11:02.144Z,5.60
2023-01-07T16:13:56.798Z,5.60
2023-01-07T16:16:44.257Z,5.60
2023-01-07T16:19:32.025Z,5.50
2023-01-07T16:22:22.742Z,5.40
2023-01-07T16:25:14.457Z,5.30
2023-01-07T16:28:03.140Z,5.30
2023-01-07T16:30:52.677Z,5.30
2023-01-07T16:33:41.277Z,5.30
2023-01-07T16:36:32.248Z,5.20
2023-01-07T16:39:22.365Z,5.20
2023-01-07T16:42:23.453Z,5.20
2023-01-07T16:45:24.507Z,5.20
2023-01-07T16:48:20.015Z,5.10
2023-01-07T16:51:39.646Z,5.00
2023-01-07T16:54:37.173Z,4.90
2023-01-07T16:57:33.361Z,4.80
2023-01-07T17:00:20.949Z,4.80
2023-01-07T17:03:13.070Z,4.80
2023-01-07T17:06:04.532Z,4.70
2023-01-07T17:08:55.485Z,4.70
2023-01-07T17:11:42.716Z,4.60
2023-01-07T17:14:48.051Z,4.60
2023-01-07T17:17:35.569Z,4.60
2023-01-07T17:20:23.246Z,4.60
2023-01-07T17:23:41.961Z,4.50
2023-01-07T17:26:41.102Z,4.50
2023-01-07T17:29:35.821Z,4.50
2023-01-07T17:32:24.553Z,4.50
2023-01-07T17:35:18.795Z,4.50
2023-01-07T17:38:09.971Z,4.50
2023-01-07T17:40:57.164Z,4.50
2023-01-07T17:43:44.855Z,4.50
2023-01-07T17:46:31.905Z,4.50
2023-01-07T17:49:20.398Z,4.50
2023-01-07T17:52:10.203Z,4.50
2023-01-07T17:54:57.683Z,4.40
2023-01-07T17:57:45.114Z,4.40
2023-01-07T18:00:36.644Z,4.40
2023-01-07T18:03:24.450Z,4.30
2023-01-07T18:06:17.870Z,4.30
2023-01-07T18:09:08.477Z,4.20
2023-01-07T18:12:13.542Z,4.20
2023-01-07T18:15:02.120Z,4.20
2023-01-07T18:17:50.962Z,4.10
2023-01-07T18:20:38.306Z,4.10
2023-01-07T18:23:26.625Z,4.10
2023-01-07T18:26:14.846Z,4.00
2023-01-07T18:29:02.542Z,4.00
2023-01-07T18:31:49.841Z,4.00
2023-01-07T18:34:38.382Z,4.00
2023-01-07T18:37:25.931Z,4.00
2023-01-07T18:40:13.208Z,4.00
2023-01-07T18:43:00.977Z,3.90
2023-01-07T18:45:49.026Z,3.90
2023-01-07T18:48:37.267Z,3.80
2023-01-07T18:51:26.087Z,3.70
2023-01-07T18:54:13.632Z,3.70
2023-01-07T18:57:01.351Z,3.60
2023-01-07T18:59:48.719Z,3.60
2023-01-07T19:02:36.151Z,3.50
2023-01-07T19:05:23.375Z,3.50
2023-01-07T19:08:12.087Z,3.50
2023-01-07T19:10:59.210Z,3.50
2023-01-07T19:13:46.514Z,3.40
2023-01-07T19:16:33.843Z,3.40
2023-01-07T19:19:21.022Z,3.40
2023-01-07T19:22:08.287Z,3.40
2023-01-07T19:24:57.104Z,3.50
2023-01-07T19:27:44.818Z,3.50
2023-01-07T19:30:32.234Z,3.50
2023-01-07T19:33:19.553Z,3.60
2023-01-07T19:36:10.030Z,3.70
2023-01-07T19:38:57.605Z,3.80
2023-01-07T19:41:46.700Z,3.80
2023-01-07T19:44:34.590Z,3.80
2023-01-07T19:47:21.844Z,3.70
2023-01-07T19:50:12.299Z,3.70
2023-01-07T19:53:00.228Z,3.70
2023-01-07T19:55:47.559Z,3.60
2023-01-07T19:58:39.696Z,3.60
2023-01-07T20:01:28.691Z,3.50
2023-01-07T20:04:16.046Z,3.50
2023-01-07T20:07:03.230Z,3.50
2023-01-07T20:09:50.468Z,3.50
2023-01-07T20:12:38.050Z,3.40
2023-01-07T20:15:26.479Z,3.40
2023-01-07T20:18:15.869Z,3.30
2023-01-07T20:21:03.782Z,3.30
2023-01-07T20:23:51.276Z,3.20
2023-01-07T20:26:38.967Z,3.20
2023-01-07T20:29:26.557Z,3.20
2023-01-07T20:32:15.058Z,3.20
2023-01-07T20:35:02.587Z,3.20
2023-01-07T20:37:49.675Z,3.20
2023-01-07T20:40:39.791Z,3.20
2023-01-07T20:43:27.283Z,3.20
2023-01-07T20:46:14.350Z,3.30
2023-01-07T20:49:03.568Z,3.20
2023-01-07T20:51:51.129Z,3.20
2023-01-07T20:54:38.907Z,3.20
2023-01-07T20:57:26.493Z,3.20
2023-01-07T21:00:14.822Z,3.20
2023-01-07T21:03:02.034Z,3.20
2023-01-07T21:05:51.079Z,3.20
2023-01-07T21:08:38.777Z,3.10
2023-01-07T21:11:26.695Z,3.10
2023-01-07T21:14:14.265Z,3.10
2023-01-07T21:17:01.796Z,3.10
2023-01-07T21:19:49.283Z,3.10
2023-01-07T21:22:38.936Z,3.00
2023-01-07T21:25:26.426Z,3.00
2023-01-07T21:28:13.497Z,3.00
2023-01-07T21:31:04.887Z,3.00
2023-01-07T21:33:55.234Z,2.90
2023-01-07T21:36:43.033Z,2.90
2023-01-07T21:39:31.761Z,2.90
2023-01-07T21:42:18.971Z,2.90
2023-01-07T21:45:07.641Z,2.90
2023-01-07T21:47:55.139Z,2.80
2023-01-07T21:50:42.251Z,2.80
2023-01-07T21:53:31.085Z,2.80
2023-01-07T21:56:21.750Z,2.80
2023-01-07T21:59:10.025Z,2.80
2023-01-07T22:01:57.456Z,2.80
2023-01-07T22:04:46.211Z,2.80
2023-01-07T22:07:33.567Z,2.70
2023-01-07T22:10:20.992Z,2.70
2023-01-07T22:13:09.849Z,2.70
2023-01-07T22:15:57.102Z,2.60
2023-01-07T22:18:44.410Z,2.60
2023-01-07T22:21:31.724Z,2.60
2023-01-07T22:24:19.349Z,2.60
2023-01-07T22:27:06.962Z,2.60
2023-01-07T22:29:56.182Z,2.50
2023-01-07T22:32:43.418Z,2.50
2023-01-07T22:35:30.748Z,2.50
2023-01-07T22:38:19.115Z,2.50
2023-01-07T22:41:09.308Z,2.40
2023-01-07T22:43:59.211Z,2.40
2023-01-07T22:46:51.206Z,2.30
2023-01-07T22:49:40.079Z,2.30
2023-01-07T22:52:27.480Z,2.20
2023-01-07T22:55:14.860Z,2.20
2023-01-07T22:58:02.380Z,2.30
2023-01-07T23:01:12.745Z,2.30
2023-01-07T23:04:02.007Z,2.20
2023-01-07T23:06:49.111Z,2.20
2023-01-07T23:09:36.397Z,2.20
2023-01-07T23:12:23.468Z,2.20
2023-01-07T23:15:13.201Z,2.10
2023-01-07T23:18:00.387Z,2.10
2023-01-07T23:20:49.317Z,2.10
2023-01-07T23:23:36.548Z,2.10
2023-01-07T23:26:23.935Z,2.10
2023-01-07T23:29:11.521Z,2.10
2023-01-07T23:31:58.668Z,2.00
2023-01-07T23:34:45.757Z,2.00
2023-01-07T23:37:34.647Z,2.10
2023-01-07T23:40:21.728Z,2.10
2023-01-07T23:43:09.087Z,2.10
2023-01-07T23:45:58.491Z,2.00
2023-01-07T23:48:45.722Z,2.00
2023-01-07T23:51:32.902Z,1.90
2023-01-07T23:54:22.796Z,1.80
2023-01-07T23:57:10.395Z,1.80
2023-01-07T23:59:58.223Z,1.80
